Time;durP1;ratioP1;P1;durP2;ratioP2;P2;SDS_P1;SDS_P2;PMS_P1;PMS_P2;Temp;Humidity;BMP_temperature;BMP_pressure;BME280_temperature;BME280_humidity;BME280_pressure;Samples;Min_cycle;Max_cycle;Signal;HPM_P1;HPM_P2
2023/06/17 00:01:23;;;;;;;10.27;5.60;;;;;;;;;;6205702;28;20078;-77
2023/06/17 00:04:24;;;;;;;8.77;5.70;;;;;;;;;;6179759;28;20786;-78
2023/06/17 00:07:26;;;;;;;11.18;6.25;;;;;;;;;;6168319;28;20169;-78
2023/06/17 00:10:28;;;;;;;10.20;6.00;;;;;;;;;;6202948;28;20089;-77
2023/06/17 00:13:29;;;;;;;8.07;5.78;;;;;;;;;;6206614;28;20148;-78
2023/06/17 00:16:36;;;;;;;8.13;5.85;;;;;;;;;;6186688;28;20080;-78
2023/06/17 00:19:40;;;;;;;8.18;6.05;;;;;;;;;;6197382;28;20046;-77
2023/06/17 00:22:46;;;;;;;9.45;5.70;;;;;;;;;;6170515;28;20045;-79
2023/06/17 00:25:49;;;;;;;9.32;5.93;;;;;;;;;;6196694;28;20042;-78
2023/06/17 00:28:50;;;;;;;10.57;5.53;;;;;;;;;;6204690;28;20495;-77
2023/06/17 00:31:52;;;;;;;8.68;5.50;;;;;;;;;;6187425;28;20049;-78
2023/06/17 00:34:54;;;;;;;11.63;5.85;;;;;;;;;;6165763;28;20073;-78
2023/06/17 00:37:56;;;;;;;9.37;6.13;;;;;;;;;;6203341;28;20038;-78
2023/06/17 00:40:58;;;;;;;8.13;5.65;;;;;;;;;;6171103;28;20046;-78
2023/06/17 00:44:00;;;;;;;8.68;5.63;;;;;;;;;;6173449;28;20056;-77
2023/06/17 00:47:02;;;;;;;8.43;5.80;;;;;;;;;;6186207;28;20125;-79
2023/06/17 00:50:08;;;;;;;11.52;6.60;;;;;;;;;;6197319;28;20085;-78
2023/06/17 00:53:10;;;;;;;9.13;5.75;;;;;;;;;;6189339;28;20049;-78
2023/06/17 00:56:13;;;;;;;7.85;5.53;;;;;;;;;;6187329;28;20089;-77
2023/06/17 00:59:14;;;;;;;9.43;5.67;;;;;;;;;;6209040;28;20041;-77
2023/06/17 01:02:17;;;;;;;10.85;6.20;;;;;;;;;;6175282;28;20053;-78
2023/06/17 01:05:20;;;;;;;11.93;6.70;;;;;;;;;;6176092;28;20052;-78
2023/06/17 01:08:33;;;;;;;11.65;7.05;;;;;;;;;;6190541;28;20133;-78
2023/06/17 01:11:38;;;;;;;9.65;5.80;;;;;;;;;;6202151;28;20061;-77
2023/06/17 01:14:42;;;;;;;10.00;5.80;;;;;;;;;;6191912;28;20053;-78
2023/06/17 01:17:46;;;;;;;7.88;5.50;;;;;;;;;;6198177;28;20062;-78
2023/06/17 01:20:54;;;;;;;8.73;5.75;;;;;;;;;;6186891;28;20046;-78
2023/06/17 01:24:03;;;;;;;9.10;6.38;;;;;;;;;;6201931;28;20823;-77
2023/06/17 01:27:06;;;;;;;10.27;5.82;;;;;;;;;;6173075;28;20195;-78
2023/06/17 01:30:09;;;;;;;9.43;6.45;;;;;;;;;;6182244;28;20044;-77
2023/06/17 01:33:13;;;;;;;8.47;6.03;;;;;;;;;;6182135;28;20061;-78
2023/06/17 01:36:18;;;;;;;;;;;;;;;;;;6200031;28;20053;-77
2023/06/17 01:39:24;;;;;;;9.02;5.90;;;;;;;;;;6199786;28;19925;-77
2023/06/17 01:42:31;;;;;;;9.02;5.95;;;;;;;;;;6202186;28;20052;-77
2023/06/17 01:45:33;;;;;;;7.45;5.35;;;;;;;;;;6176820;28;20041;-77
2023/06/17 01:48:36;;;;;;;8.63;5.80;;;;;;;;;;6187680;28;20466;-78
2023/06/17 01:51:38;;;;;;;9.00;5.80;;;;;;;;;;6185256;28;20068;-78
2023/06/17 01:54:39;;;;;;;9.90;6.07;;;;;;;;;;6201443;28;20050;-78
2023/06/17 01:57:42;;;;;;;9.85;6.28;;;;;;;;;;6208141;28;20057;-77
2023/06/17 02:00:43;;;;;;;7.35;5.85;;;;;;;;;;6180417;28;20054;-77
2023/06/17 02:03:45;;;;;;;8.43;5.50;;;;;;;;;;6179833;28;20042;-78
2023/06/17 02:06:47;;;;;;;9.77;6.00;;;;;;;;;;6192649;28;20044;-78
2023/06/17 02:09:48;;;;;;;8.75;5.68;;;;;;;;;;6187613;28;20516;-78
2023/06/17 02:12:50;;;;;;;9.55;6.88;;;;;;;;;;6181221;28;20069;-78
2023/06/17 02:15:52;;;;;;;10.57;6.97;;;;;;;;;;6196298;28;20038;-77
2023/06/17 02:18:54;;;;;;;12.05;6.65;;;;;;;;;;6182198;28;20057;-78
2023/06/17 02:21:56;;;;;;;9.95;6.53;;;;;;;;;;6199870;28;20050;-81
2023/06/17 02:24:58;;;;;;;9.10;6.45;;;;;;;;;;6185099;28;20053;-80
2023/06/17 02:28:00;;;;;;;8.13;6.07;;;;;;;;;;6200789;28;20054;-79
2023/06/17 02:31:02;;;;;;;7.70;6.10;;;;;;;;;;6151385;28;20058;-80
2023/06/17 02:34:04;;;;;;;8.65;5.68;;;;;;;;;;6183057;28;20052;-80
2023/06/17 02:37:07;;;;;;;9.70;6.65;;;;;;;;;;6176674;28;20042;-80
2023/06/17 02:40:10;;;;;;;8.50;6.13;;;;;;;;;;6184691;28;20037;-80
2023/06/17 02:43:12;;;;;;;9.70;6.15;;;;;;;;;;6191709;28;20057;-80
2023/06/17 02:46:15;;;;;;;9.15;6.63;;;;;;;;;;6201064;28;20133;-80
2023/06/17 02:49:19;;;;;;;10.57;6.32;;;;;;;;;;6179250;28;20046;-80
2023/06/17 02:52:22;;;;;;;9.15;6.47;;;;;;;;;;6186432;28;20053;-80
2023/06/17 02:55:27;;;;;;;9.65;5.90;;;;;;;;;;6186990;28;20070;-80
2023/06/17 02:58:30;;;;;;;8.27;6.07;;;;;;;;;;6176432;28;20050;-80
2023/06/17 03:01:31;;;;;;;10.85;6.45;;;;;;;;;;6199720;28;20072;-79
2023/06/17 03:04:37;;;;;;;8.60;6.00;;;;;;;;;;6173755;28;20069;-79
2023/06/17 03:07:40;;;;;;;8.07;5.75;;;;;;;;;;6200566;28;20053;-79
2023/06/17 03:10:43;;;;;;;8.50;6.18;;;;;;;;;;6187107;28;20085;-78
2023/06/17 03:13:47;;;;;;;9.38;6.45;;;;;;;;;;6185861;28;20039;-79
2023/06/17 03:16:57;;;;;;;9.23;6.30;;;;;;;;;;6192700;28;20042;-78
2023/06/17 03:20:00;;;;;;;8.43;6.72;;;;;;;;;;6177845;28;20085;-78
2023/06/17 03:23:02;;;;;;;9.02;6.75;;;;;;;;;;6181098;28;20455;-79
2023/06/17 03:26:04;;;;;;;12.15;7.72;;;;;;;;;;6166075;28;20452;-80
2023/06/17 03:29:06;;;;;;;11.50;7.43;;;;;;;;;;6198429;28;20042;-79
2023/06/17 03:32:09;;;;;;;14.32;6.68;;;;;;;;;;6195456;28;20045;-79
2023/06/17 03:35:13;;;;;;;9.50;6.18;;;;;;;;;;6193645;28;20042;-78
2023/06/17 03:38:16;;;;;;;9.35;6.50;;;;;;;;;;6182401;28;20054;-78
2023/06/17 03:41:18;;;;;;;11.13;6.65;;;;;;;;;;6182439;28;20046;-79
2023/06/17 03:44:19;;;;;;;9.25;6.80;;;;;;;;;;6164752;28;20504;-78
2023/06/17 03:47:21;;;;;;;9.57;6.45;;;;;;;;;;6193891;28;20056;-79
2023/06/17 03:50:24;;;;;;;10.63;6.50;;;;;;;;;;6169001;28;20061;-79
2023/06/17 03:53:26;;;;;;;10.55;6.65;;;;;;;;;;6183007;28;20429;-80
2023/06/17 03:56:28;;;;;;;10.40;6.63;;;;;;;;;;6169955;28;20046;-78
2023/06/17 03:59:30;;;;;;;9.45;6.47;;;;;;;;;;6180028;28;20049;-79
2023/06/17 04:02:32;;;;;;;9.57;6.60;;;;;;;;;;6163064;28;20132;-80
2023/06/17 04:05:34;;;;;;;9.38;6.72;;;;;;;;;;6185868;28;20045;-78
2023/06/17 04:08:36;;;;;;;10.25;6.65;;;;;;;;;;6204475;28;20057;-78
2023/06/17 04:11:37;;;;;;;11.73;6.90;;;;;;;;;;6184224;28;20088;-81
2023/06/17 04:14:39;;;;;;;10.80;7.18;;;;;;;;;;6183886;28;20058;-78
2023/06/17 04:17:41;;;;;;;10.32;6.88;;;;;;;;;;6201714;28;20056;-78
2023/06/17 04:20:44;;;;;;;9.98;6.82;;;;;;;;;;6199455;28;20189;-78
2023/06/17 04:23:46;;;;;;;;;;;;;;;;;;6201011;28;20042;-80
2023/06/17 04:26:52;;;;;;;8.80;6.40;;;;;;;;;;6188730;28;20031;-78
2023/06/17 04:30:01;;;;;;;10.10;6.22;;;;;;;;;;6164040;28;20048;-78
2023/06/17 04:33:03;;;;;;;10.68;6.25;;;;;;;;;;6184039;28;20044;-80
2023/06/17 04:36:08;;;;;;;9.82;6.53;;;;;;;;;;6174460;28;20058;-79
2023/06/17 04:39:12;;;;;;;11.07;6.80;;;;;;;;;;6174256;28;20053;-79
2023/06/17 04:42:14;;;;;;;10.07;6.43;;;;;;;;;;6190410;28;20049;-79
2023/06/17 04:45:17;;;;;;;11.32;6.82;;;;;;;;;;6187819;28;20044;-80
2023/06/17 04:48:23;;;;;;;10.20;7.15;;;;;;;;;;6189338;28;20089;-79
2023/06/17 04:51:24;;;;;;;9.00;6.75;;;;;;;;;;6184855;28;20523;-78
2023/06/17 04:54:26;;;;;;;10.82;7.28;;;;;;;;;;6172572;28;20108;-79
2023/06/17 04:57:28;;;;;;;11.95;7.88;;;;;;;;;;6173641;28;20057;-79
2023/06/17 05:00:31;;;;;;;11.05;7.60;;;;;;;;;;6183800;28;20050;-80
2023/06/17 05:03:33;;;;;;;10.55;7.28;;;;;;;;;;6183901;28;20038;-79
2023/06/17 05:06:36;;;;;;;11.05;7.32;;;;;;;;;;6167013;28;20119;-79
2023/06/17 05:09:38;;;;;;;10.70;7.20;;;;;;;;;;6180392;28;20441;-79
2023/06/17 05:12:41;;;;;;;9.68;6.30;;;;;;;;;;6182262;28;20460;-79
2023/06/17 05:15:43;;;;;;;10.82;7.60;;;;;;;;;;6176188;28;20522;-79
2023/06/17 05:18:45;;;;;;;10.63;7.55;;;;;;;;;;6178870;28;20053;-80
2023/06/17 05:21:47;;;;;;;10.35;7.30;;;;;;;;;;6179606;28;20042;-80
2023/06/17 05:24:52;;;;;;;11.15;7.30;;;;;;;;;;6171888;28;20043;-79
2023/06/17 05:27:54;;;;;;;10.35;7.13;;;;;;;;;;6183741;28;20042;-79
2023/06/17 05:30:59;;;;;;;9.27;6.50;;;;;;;;;;6182165;28;20080;-78
2023/06/17 05:34:01;;;;;;;8.27;6.90;;;;;;;;;;6186894;28;20044;-81
2023/06/17 05:37:03;;;;;;;9.77;7.18;;;;;;;;;;6190679;28;20050;-78
2023/06/17 05:40:05;;;;;;;8.88;6.28;;;;;;;;;;6180849;28;20060;-78
2023/06/17 05:43:08;;;;;;;11.52;6.95;;;;;;;;;;6201984;28;20048;-79
2023/06/17 05:46:10;;;;;;;8.93;7.07;;;;;;;;;;6188134;28;20054;-79
2023/06/17 05:49:12;;;;;;;8.45;6.60;;;;;;;;;;6200593;28;20045;-80
2023/06/17 05:52:13;;;;;;;11.02;6.53;;;;;;;;;;6188423;28;20527;-78
2023/06/17 05:55:15;;;;;;;10.65;6.85;;;;;;;;;;6173013;28;20050;-79
2023/06/17 05:58:18;;;;;;;9.13;6.72;;;;;;;;;;6185283;28;20042;-79
2023/06/17 06:01:31;;;;;;;9.68;6.63;;;;;;;;;;6179972;28;20077;-79
2023/06/17 06:04:33;;;;;;;8.75;6.93;;;;;;;;;;6186741;28;20050;-79
2023/06/17 06:07:34;;;;;;;9.80;7.00;;;;;;;;;;6168303;28;20046;-79
2023/06/17 06:10:36;;;;;;;11.88;6.45;;;;;;;;;;6188209;28;20050;-79
2023/06/17 06:13:38;;;;;;;8.50;6.20;;;;;;;;;;6179200;28;20045;-80
2023/06/17 06:16:40;;;;;;;9.40;6.45;;;;;;;;;;6189563;28;20064;-79
2023/06/17 06:19:42;;;;;;;7.75;6.50;;;;;;;;;;6176562;28;20077;-78
2023/06/17 06:22:45;;;;;;;;;;;;;;;;;;6197370;28;20046;-79
2023/06/17 06:25:47;;;;;;;8.20;6.00;;;;;;;;;;6177002;28;20028;-79
2023/06/17 06:28:48;;;;;;;8.95;6.00;;;;;;;;;;6187311;28;20053;-79
2023/06/17 06:31:52;;;;;;;10.63;6.60;;;;;;;;;;6174615;28;20126;-78
2023/06/17 06:34:54;;;;;;;8.82;6.18;;;;;;;;;;6186217;28;20042;-79
2023/06/17 06:37:57;;;;;;;7.63;6.50;;;;;;;;;;6182695;28;20045;-79
2023/06/17 06:40:58;;;;;;;9.10;6.25;;;;;;;;;;6184724;28;20054;-80
2023/06/17 06:44:02;;;;;;;8.50;6.50;;;;;;;;;;6168447;28;20048;-79
2023/06/17 06:47:05;;;;;;;6.68;5.95;;;;;;;;;;6182243;28;20048;-79
2023/06/17 06:50:07;;;;;;;7.95;5.88;;;;;;;;;;6182504;28;20046;-79
2023/06/17 06:53:09;;;;;;;9.38;5.82;;;;;;;;;;6158923;28;20053;-79
2023/06/17 06:56:11;;;;;;;9.43;6.03;;;;;;;;;;6194682;28;20069;-79
2023/06/17 06:59:13;;;;;;;7.20;5.28;;;;;;;;;;6195548;28;20050;-80
2023/06/17 07:02:15;;;;;;;7.63;5.93;;;;;;;;;;6182313;28;20692;-79
2023/06/17 07:05:17;;;;;;;7.80;6.10;;;;;;;;;;6186091;28;20046;-80
2023/06/17 07:08:25;;;;;;;6.07;4.97;;;;;;;;;;6184046;28;20416;-79
2023/06/17 07:11:28;;;;;;;7.70;5.28;;;;;;;;;;6182202;28;20066;-79
2023/06/17 07:14:30;;;;;;;6.82;5.38;;;;;;;;;;6186179;28;20527;-78
2023/06/17 07:17:34;;;;;;;6.65;5.25;;;;;;;;;;6191052;28;20055;-78
2023/06/17 07:20:37;;;;;;;6.60;5.10;;;;;;;;;;6191729;28;20082;-79
2023/06/17 07:23:39;;;;;;;;;;;;;;;;;;6189084;28;20816;-79
2023/06/17 07:26:41;;;;;;;4.53;3.70;;;;;;;;;;6206225;28;20402;-80
2023/06/17 07:29:43;;;;;;;4.75;3.90;;;;;;;;;;6170539;28;20050;-79
2023/06/17 07:32:45;;;;;;;8.93;4.45;;;;;;;;;;6192430;28;20049;-78
2023/06/17 07:35:46;;;;;;;5.47;4.33;;;;;;;;;;6185245;28;20050;-80
2023/06/17 07:38:48;;;;;;;5.38;4.10;;;;;;;;;;6187351;28;20433;-78
2023/06/17 07:41:50;;;;;;;5.15;4.07;;;;;;;;;;6200508;28;20053;-79
2023/06/17 07:44:52;;;;;;;5.68;4.15;;;;;;;;;;6192428;28;20097;-78
2023/06/17 07:47:53;;;;;;;4.63;4.03;;;;;;;;;;6191353;28;20092;-78
2023/06/17 07:50:55;;;;;;;5.50;3.80;;;;;;;;;;6191852;28;20420;-79
2023/06/17 07:53:57;;;;;;;5.40;4.07;;;;;;;;;;6204635;28;20147;-78
2023/06/17 07:56:58;;;;;;;6.05;3.80;;;;;;;;;;6208070;28;20124;-79
2023/06/17 08:00:00;;;;;;;4.20;3.70;;;;;;;;;;6204800;28;20773;-78
2023/06/17 08:03:02;;;;;;;4.30;3.88;;;;;;;;;;6205671;28;20049;-79
2023/06/17 08:06:04;;;;;;;4.88;4.00;;;;;;;;;;6203583;28;20709;-78
2023/06/17 08:09:06;;;;;;;5.90;3.83;;;;;;;;;;6205478;28;20050;-79
2023/06/17 08:12:08;;;;;;;4.10;3.70;;;;;;;;;;6184890;28;20136;-80
2023/06/17 08:15:10;;;;;;;7.85;4.15;;;;;;;;;;6199517;28;20555;-79
2023/06/17 08:18:12;;;;;;;5.83;4.57;;;;;;;;;;6204940;28;20563;-79
2023/06/17 08:21:13;;;;;;;5.13;4.60;;;;;;;;;;6190475;28;20137;-80
2023/06/17 08:24:24;;;;;;;4.75;3.95;;;;;;;;;;6205111;28;20558;-79
2023/06/17 08:27:27;;;;;;;6.03;3.78;;;;;;;;;;6189125;28;20129;-79
2023/06/17 08:30:32;;;;;;;5.55;3.72;;;;;;;;;;6200958;28;20050;-79
2023/06/17 08:33:34;;;;;;;5.50;3.63;;;;;;;;;;6184482;28;20716;-82
2023/06/17 08:36:38;;;;;;;4.68;3.78;;;;;;;;;;6204497;28;20619;-79
2023/06/17 08:39:42;;;;;;;4.50;3.90;;;;;;;;;;6203066;28;20070;-78
2023/06/17 08:42:45;;;;;;;4.80;4.10;;;;;;;;;;6192496;28;20057;-80
2023/06/17 08:45:49;;;;;;;6.00;4.20;;;;;;;;;;6185668;28;20062;-79
2023/06/17 08:48:51;;;;;;;6.05;4.28;;;;;;;;;;6190803;28;20438;-79
2023/06/17 08:51:54;;;;;;;6.45;4.20;;;;;;;;;;6203157;28;20053;-76
2023/06/17 08:54:56;;;;;;;6.30;4.40;;;;;;;;;;6205114;28;20042;-76
2023/06/17 08:57:58;;;;;;;5.28;4.30;;;;;;;;;;6196190;28;20096;-77
2023/06/17 09:01:00;;;;;;;6.20;4.28;;;;;;;;;;6192194;28;20124;-77
2023/06/17 09:04:01;;;;;;;5.22;4.57;;;;;;;;;;6196155;28;20081;-76
2023/06/17 09:07:04;;;;;;;4.97;4.00;;;;;;;;;;6196890;28;20042;-76
2023/06/17 09:10:07;;;;;;;6.35;4.28;;;;;;;;;;6203757;28;20045;-76
2023/06/17 09:13:09;;;;;;;5.13;4.38;;;;;;;;;;6203995;28;20077;-76
2023/06/17 09:16:11;;;;;;;;;;;;;;;;;;6182576;28;20504;-75
2023/06/17 09:19:13;;;;;;;8.27;4.57;;;;;;;;;;6195734;28;19961;-75
2023/06/17 09:22:16;;;;;;;5.70;4.20;;;;;;;;;;6206386;28;20046;-76
2023/06/17 09:25:20;;;;;;;5.35;4.55;;;;;;;;;;6201537;28;20120;-75
2023/06/17 09:28:22;;;;;;;8.95;4.45;;;;;;;;;;6168500;28;20042;-76
2023/06/17 09:31:24;;;;;;;5.90;3.90;;;;;;;;;;6180144;28;20073;-75
2023/06/17 09:34:26;;;;;;;6.60;4.45;;;;;;;;;;6197632;28;20464;-76
2023/06/17 09:37:28;;;;;;;5.85;4.20;;;;;;;;;;6203305;28;20049;-76
2023/06/17 09:40:32;;;;;;;5.65;4.70;;;;;;;;;;6171504;28;20046;-76
2023/06/17 09:43:34;;;;;;;6.22;4.30;;;;;;;;;;6199033;28;20046;-76
2023/06/17 09:46:39;;;;;;;6.25;4.68;;;;;;;;;;6204889;28;20073;-76
2023/06/17 09:49:43;;;;;;;6.03;4.20;;;;;;;;;;6202326;28;20057;-76
2023/06/17 09:52:45;;;;;;;6.55;4.35;;;;;;;;;;6203067;28;20042;-74
2023/06/17 09:55:47;;;;;;;4.88;4.38;;;;;;;;;;6200340;28;20042;-76
2023/06/17 09:58:51;;;;;;;4.78;4.25;;;;;;;;;;6179972;28;20120;-75
2023/06/17 10:01:54;;;;;;;5.00;4.50;;;;;;;;;;6197991;28;20169;-76
2023/06/17 10:04:56;;;;;;;5.40;4.40;;;;;;;;;;6181451;28;20046;-75
2023/06/17 10:07:58;;;;;;;4.60;4.10;;;;;;;;;;6203385;28;20042;-75
2023/06/17 10:11:00;;;;;;;5.43;4.57;;;;;;;;;;6196583;28;20546;-75
2023/06/17 10:14:05;;;;;;;;;;;;;;;;;;6195275;28;20100;-75
2023/06/17 10:17:11;;;;;;;5.00;4.00;;;;;;;;;;6198236;28;20007;-76
2023/06/17 10:20:14;;;;;;;5.07;4.57;;;;;;;;;;6181219;28;20085;-75
2023/06/17 10:23:21;;;;;;;5.20;3.85;;;;;;;;;;6195243;28;20047;-78
2023/06/17 10:26:23;;;;;;;6.28;4.32;;;;;;;;;;6185789;28;20042;-79
2023/06/17 10:29:25;;;;;;;4.65;4.07;;;;;;;;;;6196211;28;20061;-79
2023/06/17 10:32:27;;;;;;;5.78;4.25;;;;;;;;;;6200607;28;20054;-79
2023/06/17 10:35:43;;;;;;;5.28;4.40;;;;;;;;;;6195924;28;20050;-79
2023/06/17 10:38:53;;;;;;;5.18;4.03;;;;;;;;;;6198793;28;20523;-78
2023/06/17 10:42:13;;;;;;;4.57;4.00;;;;;;;;;;6197280;28;20074;-76
2023/06/17 10:45:14;;;;;;;5.72;5.22;;;;;;;;;;6197588;28;20052;-77
2023/06/17 10:48:16;;;;;;;5.78;4.47;;;;;;;;;;6197263;28;20132;-77
2023/06/17 10:51:20;;;;;;;6.70;4.28;;;;;;;;;;6193412;28;20057;-78
2023/06/17 10:54:27;;;;;;;5.97;4.38;;;;;;;;;;6191928;28;20050;-76
2023/06/17 10:57:31;;;;;;;4.90;4.50;;;;;;;;;;6199012;28;20097;-78
2023/06/17 11:00:33;;;;;;;4.50;4.10;;;;;;;;;;6195087;28;20058;-78
2023/06/17 11:03:35;;;;;;;5.40;4.60;;;;;;;;;;6180331;28;20060;-81
2023/06/17 11:06:37;;;;;;;6.55;4.53;;;;;;;;;;6197643;28;20054;-77
2023/06/17 11:09:38;;;;;;;5.30;4.28;;;;;;;;;;6197880;28;20080;-80
2023/06/17 11:12:44;;;;;;;5.88;4.13;;;;;;;;;;6198004;28;20070;-77
2023/06/17 11:15:45;;;;;;;5.63;4.50;;;;;;;;;;6193166;28;20120;-77
2023/06/17 11:18:47;;;;;;;4.80;4.32;;;;;;;;;;6196469;28;20049;-80
2023/06/17 11:22:07;;;;;;;6.15;4.55;;;;;;;;;;6205939;28;20056;-83
2023/06/17 11:25:09;;;;;;;4.75;4.32;;;;;;;;;;6171692;28;20045;-81
2023/06/17 11:28:12;;;;;;;5.50;3.90;;;;;;;;;;6191898;28;20153;-80
2023/06/17 11:31:13;;;;;;;;;;;;;;;;;;6200647;28;20041;-78
2023/06/17 11:34:16;;;;;;;6.00;3.95;;;;;;;;;;6196778;28;19937;-79
2023/06/17 11:37:18;;;;;;;4.80;4.40;;;;;;;;;;6193420;28;20050;-79
2023/06/17 11:40:22;;;;;;;4.70;4.22;;;;;;;;;;6189326;28;20069;-79
2023/06/17 11:43:27;;;;;;;4.63;4.20;;;;;;;;;;6194769;28;20049;-79
2023/06/17 11:46:29;;;;;;;4.68;4.13;;;;;;;;;;6193958;28;20053;-80
2023/06/17 11:49:31;;;;;;;7.30;4.20;;;;;;;;;;6191131;28;20062;-79
2023/06/17 11:52:34;;;;;;;4.82;4.28;;;;;;;;;;6203508;28;20042;-80
2023/06/17 11:55:36;;;;;;;5.78;4.10;;;;;;;;;;6190566;28;20049;-80
2023/06/17 11:58:41;;;;;;;4.35;3.95;;;;;;;;;;6195267;28;20176;-80
2023/06/17 12:01:44;;;;;;;5.50;3.92;;;;;;;;;;6191278;28;20076;-78
2023/06/17 12:04:46;;;;;;;5.00;4.30;;;;;;;;;;6191612;28;20101;-79
2023/06/17 12:07:47;;;;;;;5.90;4.35;;;;;;;;;;6182668;28;20243;-80
2023/06/17 12:10:49;;;;;;;6.45;3.97;;;;;;;;;;6157940;28;20960;-80
2023/06/17 12:13:52;;;;;;;4.75;3.83;;;;;;;;;;6171914;28;20132;-80
2023/06/17 12:16:53;;;;;;;5.28;4.28;;;;;;;;;;6194842;28;20069;-79
2023/06/17 12:20:00;;;;;;;4.50;4.10;;;;;;;;;;6176613;28;20052;-77
2023/06/17 12:23:02;;;;;;;5.47;4.18;;;;;;;;;;6196719;28;20050;-75
2023/06/17 12:26:04;;;;;;;5.00;4.35;;;;;;;;;;6177795;28;20141;-74
2023/06/17 12:29:05;;;;;;;4.70;4.30;;;;;;;;;;6197644;28;20049;-75
2023/06/17 12:32:20;;;;;;;4.65;4.05;;;;;;;;;;6198076;28;20053;-75
2023/06/17 12:35:23;;;;;;;5.18;4.15;;;;;;;;;;6184223;28;20134;-75
2023/06/17 12:38:31;;;;;;;4.97;4.20;;;;;;;;;;6199877;28;20050;-76
2023/06/17 12:41:35;;;;;;;5.10;4.43;;;;;;;;;;6195350;28;20640;-77
2023/06/17 12:44:37;;;;;;;6.47;4.40;;;;;;;;;;6192212;28;20053;-77
2023/06/17 12:47:38;;;;;;;4.55;4.15;;;;;;;;;;6180616;28;20045;-77
2023/06/17 12:50:40;;;;;;;;;;;;;;;;;;6196754;28;20049;-77
2023/06/17 12:53:42;;;;;;;5.43;4.40;;;;;;;;;;6180270;28;20063;-77
2023/06/17 12:56:44;;;;;;;4.55;4.10;;;;;;;;;;6185072;28;20054;-79
2023/06/17 12:59:46;;;;;;;7.03;4.45;;;;;;;;;;6178556;28;20516;-78
2023/06/17 13:02:48;;;;;;;5.15;4.28;;;;;;;;;;6199767;28;20054;-77
2023/06/17 13:05:51;;;;;;;4.97;4.30;;;;;;;;;;6203982;28;20053;-78
2023/06/17 13:08:54;;;;;;;6.30;4.30;;;;;;;;;;6188953;28;20065;-78
2023/06/17 13:11:56;;;;;;;4.95;4.38;;;;;;;;;;6169899;28;20125;-78
2023/06/17 13:14:57;;;;;;;4.60;4.20;;;;;;;;;;6185920;28;20282;-78
2023/06/17 13:17:59;;;;;;;4.93;4.30;;;;;;;;;;6195705;28;20062;-79
2023/06/17 13:21:00;;;;;;;5.20;4.70;;;;;;;;;;6195903;28;20080;-79
2023/06/17 13:24:03;;;;;;;5.13;4.10;;;;;;;;;;6165471;28;20050;-81
2023/06/17 13:27:06;;;;;;;8.15;4.35;;;;;;;;;;6186200;28;20050;-79
2023/06/17 13:30:09;;;;;;;7.60;4.47;;;;;;;;;;6200896;28;20425;-81
2023/06/17 13:33:11;;;;;;;6.32;4.20;;;;;;;;;;6182733;28;20046;-76
2023/06/17 13:36:13;;;;;;;5.80;4.80;;;;;;;;;;6202309;28;20046;-77
2023/06/17 13:39:15;;;;;;;5.22;4.60;;;;;;;;;;6186217;28;20106;-77
2023/06/17 13:42:17;;;;;;;6.20;4.55;;;;;;;;;;6197455;28;20065;-78
2023/06/17 13:45:18;;;;;;;5.00;4.55;;;;;;;;;;6178244;28;20081;-79
2023/06/17 13:48:21;;;;;;;5.00;4.18;;;;;;;;;;6190415;28;20397;-80
2023/06/17 13:51:23;;;;;;;5.63;4.95;;;;;;;;;;6188447;28;20046;-78
2023/06/17 13:54:24;;;;;;;;;;;;;;;;;;6183733;28;20074;-77
2023/06/17 13:57:26;;;;;;;4.68;4.22;;;;;;;;;;6195766;28;19932;-78
2023/06/17 14:00:28;;;;;;;4.97;4.47;;;;;;;;;;6167666;28;20053;-76
2023/06/17 14:03:30;;;;;;;5.00;4.53;;;;;;;;;;6206173;28;20070;-79
2023/06/17 14:06:32;;;;;;;4.88;4.38;;;;;;;;;;6209684;28;20058;-80
2023/06/17 14:09:34;;;;;;;5.22;4.47;;;;;;;;;;6205253;28;20046;-81
2023/06/17 14:12:36;;;;;;;5.25;4.35;;;;;;;;;;6205480;28;20569;-82
2023/06/17 14:15:38;;;;;;;5.03;4.53;;;;;;;;;;6194475;28;20053;-79
2023/06/17 14:18:40;;;;;;;;;;;;;;;;;;6204672;28;20407;-81
2023/06/17 14:21:54;;;;;;;4.40;4.00;;;;;;;;;;6203623;28;19925;-81
2023/06/17 14:24:55;;;;;;;5.13;4.63;;;;;;;;;;6183461;28;20050;-76
2023/06/17 14:27:58;;;;;;;5.25;4.47;;;;;;;;;;6202405;28;20092;-83
2023/06/17 14:31:00;;;;;;;5.10;4.60;;;;;;;;;;6204416;28;20046;-79
2023/06/17 14:34:02;;;;;;;;;;;;;;;;;;6183549;28;20053;-78
2023/06/17 14:37:04;;;;;;;5.55;4.70;;;;;;;;;;6199072;28;19984;-79
2023/06/17 14:40:06;;;;;;;5.07;4.45;;;;;;;;;;6204122;28;20105;-78
2023/06/17 14:43:08;;;;;;;5.07;4.57;;;;;;;;;;6206196;28;20042;-77
2023/06/17 14:46:10;;;;;;;5.20;4.15;;;;;;;;;;6202322;28;20086;-79
2023/06/17 14:49:12;;;;;;;5.07;4.25;;;;;;;;;;6197082;28;20045;-80
2023/06/17 14:52:15;;;;;;;5.38;4.88;;;;;;;;;;6203788;28;20085;-78
2023/06/17 14:55:16;;;;;;;5.47;4.40;;;;;;;;;;6183932;28;20053;-77
2023/06/17 14:58:18;;;;;;;6.75;5.00;;;;;;;;;;6196444;28;20042;-76
2023/06/17 15:01:21;;;;;;;6.18;4.35;;;;;;;;;;6196677;28;20049;-76
2023/06/17 15:04:22;;;;;;;5.63;4.55;;;;;;;;;;6181796;28;20056;-76
2023/06/17 15:07:24;;;;;;;4.97;4.47;;;;;;;;;;6200299;28;20042;-76
2023/06/17 15:10:26;;;;;;;4.95;4.50;;;;;;;;;;6173413;28;20089;-76
2023/06/17 15:13:27;;;;;;;5.65;4.30;;;;;;;;;;6174421;28;20050;-76
2023/06/17 15:16:29;;;;;;;6.38;4.47;;;;;;;;;;6198826;28;20057;-76
2023/06/17 15:19:31;;;;;;;5.10;4.57;;;;;;;;;;6194870;28;20393;-76
2023/06/17 15:22:33;;;;;;;;;;;;;;;;;;6201859;28;20077;-76
2023/06/17 15:25:34;;;;;;;5.43;4.73;;;;;;;;;;6191873;28;19929;-75
2023/06/17 15:28:36;;;;;;;6.15;4.68;;;;;;;;;;6202840;28;20608;-75
2023/06/17 15:31:38;;;;;;;4.57;4.18;;;;;;;;;;6198077;28;20407;-76
2023/06/17 15:34:40;;;;;;;4.97;4.47;;;;;;;;;;6185142;28;20042;-75
2023/06/17 15:37:41;;;;;;;5.32;4.25;;;;;;;;;;6179260;28;20073;-76
2023/06/17 15:40:44;;;;;;;6.43;4.47;;;;;;;;;;6174358;28;20057;-76
2023/06/17 15:43:45;;;;;;;5.13;4.45;;;;;;;;;;6182337;28;20176;-76
2023/06/17 15:46:48;;;;;;;5.15;4.65;;;;;;;;;;6196083;28;20088;-76
2023/06/17 15:49:49;;;;;;;4.95;4.45;;;;;;;;;;6197498;28;20508;-76
2023/06/17 15:52:51;;;;;;;4.47;4.07;;;;;;;;;;6198031;28;20129;-76
2023/06/17 15:55:53;;;;;;;;;;;;;;;;;;6196517;28;20172;-75
2023/06/17 15:58:55;;;;;;;5.07;4.43;;;;;;;;;;6199889;28;19979;-76
2023/06/17 16:01:56;;;;;;;5.88;4.22;;;;;;;;;;6201459;28;20096;-76
2023/06/17 16:04:58;;;;;;;6.60;4.68;;;;;;;;;;6205014;28;20041;-76
2023/06/17 16:08:00;;;;;;;;;;;;;;;;;;6205501;28;20058;-77
2023/06/17 16:11:03;;;;;;;5.10;4.17;;;;;;;;;;6200752;28;19932;-76
2023/06/17 16:14:04;;;;;;;6.95;4.80;;;;;;;;;;6204398;28;20073;-76
2023/06/17 16:17:08;;;;;;;6.30;4.72;;;;;;;;;;6204905;28;20085;-77
2023/06/17 16:20:10;;;;;;;5.50;4.75;;;;;;;;;;6203043;28;20050;-77
2023/06/17 16:23:15;;;;;;;;;;;;;;;;;;6184318;28;20089;-77
2023/06/17 16:26:17;;;;;;;7.25;6.50;;;;;;;;;;6195170;28;20000;-77
2023/06/17 16:29:18;;;;;;;5.43;4.68;;;;;;;;;;6211357;28;20041;-77
2023/06/17 16:32:20;;;;;;;5.60;4.55;;;;;;;;;;6190979;28;20058;-78
2023/06/17 16:35:22;;;;;;;7.32;4.82;;;;;;;;;;6200894;28;20054;-77
2023/06/17 16:38:23;;;;;;;5.25;4.75;;;;;;;;;;6177636;28;20108;-78
2023/06/17 16:41:25;;;;;;;6.38;4.65;;;;;;;;;;6200867;28;20046;-78
2023/06/17 16:44:27;;;;;;;8.23;4.25;;;;;;;;;;6200555;28;20052;-77
2023/06/17 16:47:29;;;;;;;5.95;4.70;;;;;;;;;;6182896;28;20042;-77
2023/06/17 16:50:31;;;;;;;5.03;4.53;;;;;;;;;;6196928;28;20054;-78
2023/06/17 16:53:33;;;;;;;4.53;4.10;;;;;;;;;;6189775;28;20053;-78
2023/06/17 16:56:35;;;;;;;6.38;4.40;;;;;;;;;;6199065;28;20116;-78
2023/06/17 16:59:37;;;;;;;4.70;4.07;;;;;;;;;;6191180;28;20039;-79
2023/06/17 17:02:38;;;;;;;5.63;4.50;;;;;;;;;;6172526;28;20310;-78
2023/06/17 17:05:40;;;;;;;5.55;4.75;;;;;;;;;;6202838;28;20078;-78
2023/06/17 17:08:43;;;;;;;5.80;4.50;;;;;;;;;;6198881;28;20049;-78
2023/06/17 17:11:44;;;;;;;5.15;4.65;;;;;;;;;;6197976;28;20112;-78
2023/06/17 17:14:46;;;;;;;5.45;4.55;;;;;;;;;;6204517;28;20109;-78
2023/06/17 17:17:48;;;;;;;6.32;4.78;;;;;;;;;;6184405;28;20086;-78
2023/06/17 17:20:50;;;;;;;5.78;4.90;;;;;;;;;;6191552;28;20054;-78
2023/06/17 17:23:51;;;;;;;5.43;4.80;;;;;;;;;;6202072;28;20038;-78
2023/06/17 17:26:53;;;;;;;6.13;4.80;;;;;;;;;;6178397;28;20807;-78
2023/06/17 17:29:55;;;;;;;6.03;4.80;;;;;;;;;;6204856;28;20136;-78
2023/06/17 17:32:56;;;;;;;5.22;4.50;;;;;;;;;;6165825;28;20554;-77
2023/06/17 17:36:00;;;;;;;5.07;4.28;;;;;;;;;;6184710;28;20065;-78
2023/06/17 17:39:03;;;;;;;5.80;4.43;;;;;;;;;;6186952;28;21249;-78
2023/06/17 17:42:05;;;;;;;5.78;4.25;;;;;;;;;;6200288;28;20074;-78
2023/06/17 17:45:07;;;;;;;5.20;4.70;;;;;;;;;;6184681;28;20615;-77
2023/06/17 17:48:09;;;;;;;7.13;4.95;;;;;;;;;;6180400;28;20050;-78
2023/06/17 17:51:11;;;;;;;6.65;4.53;;;;;;;;;;6203508;28;20121;-79
2023/06/17 17:54:12;;;;;;;5.93;4.43;;;;;;;;;;6197528;28;20162;-78
2023/06/17 17:57:14;;;;;;;6.75;4.93;;;;;;;;;;6186820;28;20069;-78
2023/06/17 18:00:16;;;;;;;7.37;4.80;;;;;;;;;;6186359;28;20046;-77
2023/06/17 18:03:18;;;;;;;5.35;4.50;;;;;;;;;;6205686;28;20448;-78
2023/06/17 18:06:20;;;;;;;5.28;4.53;;;;;;;;;;6202424;28;20054;-78
2023/06/17 18:09:21;;;;;;;5.88;4.30;;;;;;;;;;6199277;28;20054;-78
2023/06/17 18:12:23;;;;;;;4.72;4.22;;;;;;;;;;6187502;28;20042;-78
2023/06/17 18:15:26;;;;;;;5.13;4.47;;;;;;;;;;6191189;28;20053;-77
2023/06/17 18:18:27;;;;;;;4.57;4.18;;;;;;;;;;6202122;28;20432;-78